sensor_id;sensor_type;location;lat;lon;timestamp;P1;durP1;ratioP1;P2;durP2;ratioP2
70942;SDS011;59154;51.970;5.650;2023-03-04T00:00:04;7.9;;;3.2;;
70942;SDS011;59154;51.970;5.650;2023-03-04T00:05:02;7.4;;;2.4;;
70942;SDS011;59154;51.970;5.650;2023-03-04T00:10:02;12.7;;;3.3;;
70942;SDS011;59154;51.970;5.650;2023-03-04T00:15:02;7.7;;;2.7;;
70942;SDS011;59154;51.970;5.650;2023-03-04T00:20:03;5.8;;;2.4;;
70942;SDS011;59154;51.970;5.650;2023-03-04T00:25:02;12.9;;;3.0;;
70942;SDS011;59154;51.970;5.650;2023-03-04T00:30:03;7.1;;;3.2;;
70942;SDS011;59154;51.970;5.650;2023-03-04T00:35:02;5.0;;;2.5;;
70942;SDS011;59154;51.970;5.650;2023-03-04T00:40:03;10.2;;;2.4;;
70942;SDS011;59154;51.970;5.650;2023-03-04T00:45:03;9.3;;;2.4;;
70942;SDS011;59154;51.970;5.650;2023-03-04T00:50:03;8.4;;;2.4;;
70942;SDS011;59154;51.970;5.650;2023-03-04T00:55:02;10.7;;;2.9;;
70942;SDS011;59154;51.970;5.650;2023-03-04T01:00:03;11.1;;;2.6;;
70942;SDS011;59154;51.970;5.650;2023-03-04T01:05:02;8.1;;;2.9;;
70942;SDS011;59154;51.970;5.650;2023-03-04T01:10:03;11.9;;;2.5;;
70942;SDS011;59154;51.970;5.650;2023-03-04T01:15:03;9.6;;;3.3;;
70942;SDS011;59154;51.970;5.650;2023-03-04T01:20:03;7.9;;;2.4;;
70942;SDS011;59154;51.970;5.650;2023-03-04T01:25:02;7.1;;;2.6;;
70942;SDS011;59154;51.970;5.650;2023-03-04T01:30:03;6.3;;;2.6;;
70942;SDS011;59154;51.970;5.650;2023-03-04T01:35:02;6.6;;;2.2;;
70942;SDS011;59154;51.970;5.650;2023-03-04T01:40:03;9.0;;;2.7;;
70942;SDS011;59154;51.970;5.650;2023-03-04T01:45:02;8.9;;;2.8;;
70942;SDS011;59154;51.970;5.650;2023-03-04T01:50:04;9.1;;;2.0;;
70942;SDS011;59154;51.970;5.650;2023-03-04T01:55:05;11.2;;;2.7;;
70942;SDS011;59154;51.970;5.650;2023-03-04T02:00:14;5.0;;;2.3;;
70942;SDS011;59154;51.970;5.650;2023-03-04T02:05:02;8.8;;;2.8;;
70942;SDS011;59154;51.970;5.650;2023-03-04T02:10:02;9.6;;;2.8;;
70942;SDS011;59154;51.970;5.650;2023-03-04T02:15:02;10.5;;;2.4;;
70942;SDS011;59154;51.970;5.650;2023-03-04T02:20:06;8.1;;;2.4;;
70942;SDS011;59154;51.970;5.650;2023-03-04T02:25:03;6.9;;;2.4;;
70942;SDS011;59154;51.970;5.650;2023-03-04T02:30:02;8.6;;;2.1;;
70942;SDS011;59154;51.970;5.650;2023-03-04T02:35:03;6.2;;;2.1;;
70942;SDS011;59154;51.970;5.650;2023-03-04T02:40:03;6.1;;;2.2;;
70942;SDS011;59154;51.970;5.650;2023-03-04T02:45:02;7.2;;;2.2;;
70942;SDS011;59154;51.970;5.650;2023-03-04T02:50:02;10.5;;;2.3;;
70942;SDS011;59154;51.970;5.650;2023-03-04T02:55:03;9.4;;;2.0;;
70942;SDS011;59154;51.970;5.650;2023-03-04T03:00:03;10.3;;;2.7;;
70942;SDS011;59154;51.970;5.650;2023-03-04T03:05:02;7.9;;;2.1;;
70942;SDS011;59154;51.970;5.650;2023-03-04T03:10:02;10.8;;;3.2;;
70942;SDS011;59154;51.970;5.650;2023-03-04T03:15:02;5.3;;;2.3;;
70942;SDS011;59154;51.970;5.650;2023-03-04T03:20:04;9.7;;;2.4;;
70942;SDS011;59154;51.970;5.650;2023-03-04T03:25:02;11.7;;;2.5;;
70942;SDS011;59154;51.970;5.650;2023-03-04T03:30:03;6.7;;;2.6;;
70942;SDS011;59154;51.970;5.650;2023-03-04T03:35:02;10.5;;;2.6;;
70942;SDS011;59154;51.970;5.650;2023-03-04T03:40:03;9.2;;;1.9;;
70942;SDS011;59154;51.970;5.650;2023-03-04T03:45:02;10.3;;;2.7;;
70942;SDS011;59154;51.970;5.650;2023-03-04T03:50:03;6.3;;;2.4;;
70942;SDS011;59154;51.970;5.650;2023-03-04T03:55:03;7.8;;;2.3;;
70942;SDS011;59154;51.970;5.650;2023-03-04T04:00:03;5.8;;;2.0;;
70942;SDS011;59154;51.970;5.650;2023-03-04T04:05:03;6.7;;;2.1;;
70942;SDS011;59154;51.970;5.650;2023-03-04T04:10:03;8.4;;;2.7;;
70942;SDS011;59154;51.970;5.650;2023-03-04T04:15:02;5.8;;;2.1;;
70942;SDS011;59154;51.970;5.650;2023-03-04T04:20:04;8.5;;;1.7;;
70942;SDS011;59154;51.970;5.650;2023-03-04T04:25:02;8.4;;;2.1;;
70942;SDS011;59154;51.970;5.650;2023-03-04T04:30:03;8.8;;;2.4;;
70942;SDS011;59154;51.970;5.650;2023-03-04T04:35:03;6.8;;;2.7;;
70942;SDS011;59154;51.970;5.650;2023-03-04T04:40:02;4.9;;;2.1;;
70942;SDS011;59154;51.970;5.650;2023-03-04T04:45:02;6.2;;;1.8;;
70942;SDS011;59154;51.970;5.650;2023-03-04T04:50:03;9.0;;;3.2;;
70942;SDS011;59154;51.970;5.650;2023-03-04T04:55:02;6.1;;;1.6;;
70942;SDS011;59154;51.970;5.650;2023-03-04T05:00:03;6.4;;;1.7;;
70942;SDS011;59154;51.970;5.650;2023-03-04T05:05:02;5.4;;;1.9;;
70942;SDS011;59154;51.970;5.650;2023-03-04T05:10:02;7.6;;;3.0;;
70942;SDS011;59154;51.970;5.650;2023-03-04T05:15:02;5.2;;;1.5;;
70942;SDS011;59154;51.970;5.650;2023-03-04T05:20:03;7.6;;;2.3;;
70942;SDS011;59154;51.970;5.650;2023-03-04T05:25:02;7.4;;;1.9;;
70942;SDS011;59154;51.970;5.650;2023-03-04T05:30:03;5.0;;;1.7;;
70942;SDS011;59154;51.970;5.650;2023-03-04T05:35:03;5.2;;;1.5;;
70942;SDS011;59154;51.970;5.650;2023-03-04T05:40:03;4.9;;;2.0;;
70942;SDS011;59154;51.970;5.650;2023-03-04T05:45:03;7.4;;;2.0;;
70942;SDS011;59154;51.970;5.650;2023-03-04T05:50:02;6.1;;;1.7;;
70942;SDS011;59154;51.970;5.650;2023-03-04T05:55:02;3.9;;;2.0;;
70942;SDS011;59154;51.970;5.650;2023-03-04T06:00:03;5.5;;;1.8;;
70942;SDS011;59154;51.970;5.650;2023-03-04T06:05:03;3.4;;;1.7;;
70942;SDS011;59154;51.970;5.650;2023-03-04T06:10:03;6.0;;;2.3;;
70942;SDS011;59154;51.970;5.650;2023-03-04T06:15:02;8.6;;;2.5;;
70942;SDS011;59154;51.970;5.650;2023-03-04T06:20:03;4.2;;;1.8;;
70942;SDS011;59154;51.970;5.650;2023-03-04T06:25:02;7.0;;;1.8;;
70942;SDS011;59154;51.970;5.650;2023-03-04T06:30:02;4.4;;;1.9;;
70942;SDS011;59154;51.970;5.650;2023-03-04T06:35:03;8.6;;;2.2;;
70942;SDS011;59154;51.970;5.650;2023-03-04T06:40:03;8.1;;;2.3;;
70942;SDS011;59154;51.970;5.650;2023-03-04T06:45:02;6.5;;;3.1;;
70942;SDS011;59154;51.970;5.650;2023-03-04T06:50:03;7.5;;;1.9;;
70942;SDS011;59154;51.970;5.650;2023-03-04T06:55:02;7.9;;;2.4;;
70942;SDS011;59154;51.970;5.650;2023-03-04T07:00:03;6.0;;;2.2;;
70942;SDS011;59154;51.970;5.650;2023-03-04T07:05:02;9.0;;;2.3;;
70942;SDS011;59154;51.970;5.650;2023-03-04T07:10:02;5.5;;;2.1;;
70942;SDS011;59154;51.970;5.650;2023-03-04T07:15:03;5.2;;;2.5;;
70942;SDS011;59154;51.970;5.650;2023-03-04T07:20:03;6.8;;;2.0;;
70942;SDS011;59154;51.970;5.650;2023-03-04T07:25:03;7.1;;;2.1;;
70942;SDS011;59154;51.970;5.650;2023-03-04T07:30:03;5.8;;;1.6;;
70942;SDS011;59154;51.970;5.650;2023-03-04T07:35:02;5.2;;;1.7;;
70942;SDS011;59154;51.970;5.650;2023-03-04T07:40:03;5.2;;;2.1;;
70942;SDS011;59154;51.970;5.650;2023-03-04T07:45:02;5.3;;;2.0;;
70942;SDS011;59154;51.970;5.650;2023-03-04T07:50:03;5.0;;;1.5;;
70942;SDS011;59154;51.970;5.650;2023-03-04T07:55:02;7.0;;;2.1;;
70942;SDS011;59154;51.970;5.650;2023-03-04T08:00:03;6.3;;;3.2;;
70942;SDS011;59154;51.970;5.650;2023-03-04T08:05:02;5.1;;;2.2;;
70942;SDS011;59154;51.970;5.650;2023-03-04T08:10:03;4.7;;;2.1;;
70942;SDS011;59154;51.970;5.650;2023-03-04T08:15:02;6.6;;;2.1;;
70942;SDS011;59154;51.970;5.650;2023-03-04T08:20:03;9.5;;;2.1;;
70942;SDS011;59154;51.970;5.650;2023-03-04T08:25:03;9.6;;;2.4;;
70942;SDS011;59154;51.970;5.650;2023-03-04T08:30:03;8.3;;;2.0;;
70942;SDS011;59154;51.970;5.650;2023-03-04T08:35:02;3.6;;;1.4;;
70942;SDS011;59154;51.970;5.650;2023-03-04T08:40:03;4.1;;;1.6;;
70942;SDS011;59154;51.970;5.650;2023-03-04T08:45:02;3.4;;;1.5;;
70942;SDS011;59154;51.970;5.650;2023-03-04T08:50:02;5.9;;;1.7;;
70942;SDS011;59154;51.970;5.650;2023-03-04T08:55:02;2.0;;;1.3;;
70942;SDS011;59154;51.970;5.650;2023-03-04T09:00:03;3.1;;;1.1;;
70942;SDS011;59154;51.970;5.650;2023-03-04T09:05:03;2.4;;;1.4;;
70942;SDS011;59154;51.970;5.650;2023-03-04T09:10:03;5.6;;;2.1;;
70942;SDS011;59154;51.970;5.650;2023-03-04T09:15:02;4.7;;;1.9;;
70942;SDS011;59154;51.970;5.650;2023-03-04T09:20:03;3.4;;;1.7;;
70942;SDS011;59154;51.970;5.650;2023-03-04T09:25:02;2.8;;;1.5;;
70942;SDS011;59154;51.970;5.650;2023-03-04T09:30:03;4.8;;;1.7;;
70942;SDS011;59154;51.970;5.650;2023-03-04T09:35:02;1.4;;;1.1;;
70942;SDS011;59154;51.970;5.650;2023-03-04T09:40:03;2.0;;;1.3;;
70942;SDS011;59154;51.970;5.650;2023-03-04T09:45:03;5.6;;;1.6;;
70942;SDS011;59154;51.970;5.650;2023-03-04T09:50:05;2.5;;;1.2;;
70942;SDS011;59154;51.970;5.650;2023-03-04T09:55:04;4.3;;;1.6;;
70942;SDS011;59154;51.970;5.650;2023-03-04T10:00:05;4.2;;;1.4;;
70942;SDS011;59154;51.970;5.650;2023-03-04T10:05:03;3.6;;;1.2;;
70942;SDS011;59154;51.970;5.650;2023-03-04T10:10:03;3.8;;;1.6;;
70942;SDS011;59154;51.970;5.650;2023-03-04T10:15:03;1.3;;;0.6;;
70942;SDS011;59154;51.970;5.650;2023-03-04T10:20:04;1.4;;;0.9;;
70942;SDS011;59154;51.970;5.650;2023-03-04T10:25:13;1.0;;;0.9;;
70942;SDS011;59154;51.970;5.650;2023-03-04T10:30:03;0.9;;;0.8;;
70942;SDS011;59154;51.970;5.650;2023-03-04T10:35:05;1.4;;;0.9;;
70942;SDS011;59154;51.970;5.650;2023-03-04T10:40:03;2.0;;;1.3;;
70942;SDS011;59154;51.970;5.650;2023-03-04T10:45:03;1.5;;;0.9;;
70942;SDS011;59154;51.970;5.650;2023-03-04T10:50:03;1.8;;;1.1;;
70942;SDS011;59154;51.970;5.650;2023-03-04T10:55:03;1.7;;;1.0;;
70942;SDS011;59154;51.970;5.650;2023-03-04T11:00:08;2.9;;;0.8;;
70942;SDS011;59154;51.970;5.650;2023-03-04T11:05:09;2.7;;;1.1;;
70942;SDS011;59154;51.970;5.650;2023-03-04T11:10:10;1.7;;;1.1;;
70942;SDS011;59154;51.970;5.650;2023-03-04T11:15:02;3.0;;;1.0;;
70942;SDS011;59154;51.970;5.650;2023-03-04T11:20:04;2.2;;;1.2;;
70942;SDS011;59154;51.970;5.650;2023-03-04T11:25:04;3.9;;;1.1;;
70942;SDS011;59154;51.970;5.650;2023-03-04T11:30:08;2.4;;;1.4;;
70942;SDS011;59154;51.970;5.650;2023-03-04T11:35:05;2.7;;;1.2;;
70942;SDS011;59154;51.970;5.650;2023-03-04T11:40:03;2.2;;;1.5;;
70942;SDS011;59154;51.970;5.650;2023-03-04T11:45:02;1.3;;;1.1;;
70942;SDS011;59154;51.970;5.650;2023-03-04T11:50:38;1.4;;;1.1;;
70942;SDS011;59154;51.970;5.650;2023-03-04T11:55:05;3.3;;;1.7;;
70942;SDS011;59154;51.970;5.650;2023-03-04T12:00:11;3.4;;;1.4;;
70942;SDS011;59154;51.970;5.650;2023-03-04T12:05:08;2.8;;;1.2;;
70942;SDS011;59154;51.970;5.650;2023-03-04T12:10:04;3.5;;;1.4;;
70942;SDS011;59154;51.970;5.650;2023-03-04T12:15:06;5.4;;;1.4;;
70942;SDS011;59154;51.970;5.650;2023-03-04T12:20:08;3.4;;;1.9;;
70942;SDS011;59154;51.970;5.650;2023-03-04T12:25:11;2.7;;;1.4;;
70942;SDS011;59154;51.970;5.650;2023-03-04T12:30:04;3.9;;;1.6;;
70942;SDS011;59154;51.970;5.650;2023-03-04T12:35:09;2.9;;;1.4;;
70942;SDS011;59154;51.970;5.650;2023-03-04T12:40:07;2.8;;;1.3;;
70942;SDS011;59154;51.970;5.650;2023-03-04T12:45:03;2.5;;;1.4;;
70942;SDS011;59154;51.970;5.650;2023-03-04T12:50:06;5.4;;;1.8;;
70942;SDS011;59154;51.970;5.650;2023-03-04T12:55:03;3.7;;;1.5;;
70942;SDS011;59154;51.970;5.650;2023-03-04T13:00:07;4.1;;;1.9;;
70942;SDS011;59154;51.970;5.650;2023-03-04T13:05:06;4.7;;;1.7;;
70942;SDS011;59154;51.970;5.650;2023-03-04T13:10:04;2.8;;;1.4;;
70942;SDS011;59154;51.970;5.650;2023-03-04T13:15:26;5.5;;;1.6;;
70942;SDS011;59154;51.970;5.650;2023-03-04T13:20:12;8.4;;;2.0;;
70942;SDS011;59154;51.970;5.650;2023-03-04T13:25:26;5.1;;;2.3;;
70942;SDS011;59154;51.970;5.650;2023-03-04T13:30:02;4.5;;;1.7;;
70942;SDS011;59154;51.970;5.650;2023-03-04T13:35:22;3.2;;;1.8;;
70942;SDS011;59154;51.970;5.650;2023-03-04T13:40:35;5.1;;;1.9;;
70942;SDS011;59154;51.970;5.650;2023-03-04T13:45:02;4.0;;;1.6;;
70942;SDS011;59154;51.970;5.650;2023-03-04T13:50:21;4.8;;;1.9;;
70942;SDS011;59154;51.970;5.650;2023-03-04T13:55:36;3.4;;;1.6;;
70942;SDS011;59154;51.970;5.650;2023-03-04T14:00:03;5.9;;;1.7;;
70942;SDS011;59154;51.970;5.650;2023-03-04T14:05:02;5.2;;;1.7;;
70942;SDS011;59154;51.970;5.650;2023-03-04T14:10:04;4.3;;;1.4;;
70942;SDS011;59154;51.970;5.650;2023-03-04T14:15:03;5.0;;;2.0;;
70942;SDS011;59154;51.970;5.650;2023-03-04T14:20:03;4.2;;;1.9;;
70942;SDS011;59154;51.970;5.650;2023-03-04T14:25:04;4.3;;;1.9;;
70942;SDS011;59154;51.970;5.650;2023-03-04T14:30:04;12.7;;;2.1;;
70942;SDS011;59154;51.970;5.650;2023-03-04T14:35:03;3.9;;;1.6;;
70942;SDS011;59154;51.970;5.650;2023-03-04T14:40:03;6.9;;;2.3;;
70942;SDS011;59154;51.970;5.650;2023-03-04T14:45:03;3.9;;;1.5;;
70942;SDS011;59154;51.970;5.650;2023-03-04T14:50:03;2.4;;;1.6;;
70942;SDS011;59154;51.970;5.650;2023-03-04T14:55:14;2.0;;;1.2;;
70942;SDS011;59154;51.970;5.650;2023-03-04T15:00:35;4.2;;;1.1;;
70942;SDS011;59154;51.970;5.650;2023-03-04T15:05:07;1.3;;;0.9;;
70942;SDS011;59154;51.970;5.650;2023-03-04T15:10:03;2.6;;;1.1;;
70942;SDS011;59154;51.970;5.650;2023-03-04T15:15:03;2.5;;;1.3;;
70942;SDS011;59154;51.970;5.650;2023-03-04T15:20:20;2.5;;;1.2;;
70942;SDS011;59154;51.970;5.650;2023-03-04T15:25:02;3.7;;;1.3;;
70942;SDS011;59154;51.970;5.650;2023-03-04T15:30:05;2.0;;;1.1;;
70942;SDS011;59154;51.970;5.650;2023-03-04T15:35:02;8.7;;;2.1;;
70942;SDS011;59154;51.970;5.650;2023-03-04T15:40:04;3.1;;;1.1;;
70942;SDS011;59154;51.970;5.650;2023-03-04T15:45:04;5.1;;;1.6;;
70942;SDS011;59154;51.970;5.650;2023-03-04T15:50:03;5.5;;;2.0;;
70942;SDS011;59154;51.970;5.650;2023-03-04T15:55:02;5.6;;;1.8;;
70942;SDS011;59154;51.970;5.650;2023-03-04T16:00:03;6.4;;;2.2;;
70942;SDS011;59154;51.970;5.650;2023-03-04T16:05:02;5.6;;;2.5;;
70942;SDS011;59154;51.970;5.650;2023-03-04T16:10:04;6.3;;;1.7;;
70942;SDS011;59154;51.970;5.650;2023-03-04T16:15:05;2.2;;;1.0;;
70942;SDS011;59154;51.970;5.650;2023-03-04T16:20:03;5.3;;;1.4;;
70942;SDS011;59154;51.970;5.650;2023-03-04T16:25:03;4.3;;;1.2;;
70942;SDS011;59154;51.970;5.650;2023-03-04T16:30:02;3.9;;;1.3;;
70942;SDS011;59154;51.970;5.650;2023-03-04T16:35:02;3.5;;;1.2;;
70942;SDS011;59154;51.970;5.650;2023-03-04T16:40:03;3.7;;;1.5;;
70942;SDS011;59154;51.970;5.650;2023-03-04T16:45:02;4.4;;;1.4;;
70942;SDS011;59154;51.970;5.650;2023-03-04T16:50:03;4.6;;;1.8;;
70942;SDS011;59154;51.970;5.650;2023-03-04T16:55:02;2.4;;;1.5;;
70942;SDS011;59154;51.970;5.650;2023-03-04T17:00:03;4.3;;;1.8;;
70942;SDS011;59154;51.970;5.650;2023-03-04T17:05:02;4.9;;;1.8;;
70942;SDS011;59154;51.970;5.650;2023-03-04T17:10:03;7.9;;;1.7;;
70942;SDS011;59154;51.970;5.650;2023-03-04T17:15:02;4.2;;;1.8;;
70942;SDS011;59154;51.970;5.650;2023-03-04T17:20:03;5.4;;;2.0;;
70942;SDS011;59154;51.970;5.650;2023-03-04T17:25:02;11.4;;;2.3;;
70942;SDS011;59154;51.970;5.650;2023-03-04T17:30:03;5.3;;;2.1;;
70942;SDS011;59154;51.970;5.650;2023-03-04T17:35:02;7.1;;;2.3;;
70942;SDS011;59154;51.970;5.650;2023-03-04T17:40:04;7.6;;;2.6;;
70942;SDS011;59154;51.970;5.650;2023-03-04T17:45:02;6.1;;;2.2;;
70942;SDS011;59154;51.970;5.650;2023-03-04T17:50:02;4.5;;;2.1;;
70942;SDS011;59154;51.970;5.650;2023-03-04T17:55:02;9.0;;;3.4;;
70942;SDS011;59154;51.970;5.650;2023-03-04T18:00:04;9.5;;;3.0;;
70942;SDS011;59154;51.970;5.650;2023-03-04T18:05:03;6.9;;;2.7;;
70942;SDS011;59154;51.970;5.650;2023-03-04T18:10:03;11.0;;;3.0;;
70942;SDS011;59154;51.970;5.650;2023-03-04T18:15:02;4.9;;;2.0;;
70942;SDS011;59154;51.970;5.650;2023-03-04T18:20:03;5.5;;;2.0;;
70942;SDS011;59154;51.970;5.650;2023-03-04T18:25:02;8.2;;;2.5;;
70942;SDS011;59154;51.970;5.650;2023-03-04T18:30:02;7.4;;;2.9;;
70942;SDS011;59154;51.970;5.650;2023-03-04T18:35:02;6.8;;;2.4;;
70942;SDS011;59154;51.970;5.650;2023-03-04T18:40:04;7.7;;;2.4;;
70942;SDS011;59154;51.970;5.650;2023-03-04T18:45:02;6.3;;;2.4;;
70942;SDS011;59154;51.970;5.650;2023-03-04T18:50:02;5.6;;;2.4;;
70942;SDS011;59154;51.970;5.650;2023-03-04T18:55:03;7.7;;;2.3;;
70942;SDS011;59154;51.970;5.650;2023-03-04T19:00:03;8.8;;;1.9;;
70942;SDS011;59154;51.970;5.650;2023-03-04T19:05:03;4.4;;;1.7;;
70942;SDS011;59154;51.970;5.650;2023-03-04T19:10:03;5.6;;;2.0;;
70942;SDS011;59154;51.970;5.650;2023-03-04T19:15:02;5.6;;;1.8;;
70942;SDS011;59154;51.970;5.650;2023-03-04T19:20:04;7.7;;;2.0;;
70942;SDS011;59154;51.970;5.650;2023-03-04T19:25:02;8.4;;;2.5;;
70942;SDS011;59154;51.970;5.650;2023-03-04T19:30:03;8.1;;;2.5;;
70942;SDS011;59154;51.970;5.650;2023-03-04T19:35:02;6.4;;;2.5;;
70942;SDS011;59154;51.970;5.650;2023-03-04T19:40:04;8.9;;;2.7;;
70942;SDS011;59154;51.970;5.650;2023-03-04T19:45:02;7.8;;;2.6;;
70942;SDS011;59154;51.970;5.650;2023-03-04T19:50:03;10.9;;;2.7;;
70942;SDS011;59154;51.970;5.650;2023-03-04T19:55:02;6.0;;;2.5;;
70942;SDS011;59154;51.970;5.650;2023-03-04T20:00:03;6.2;;;2.4;;
70942;SDS011;59154;51.970;5.650;2023-03-04T20:05:03;8.7;;;2.8;;
70942;SDS011;59154;51.970;5.650;2023-03-04T20:10:03;6.2;;;2.6;;
70942;SDS011;59154;51.970;5.650;2023-03-04T20:15:03;5.4;;;2.8;;
70942;SDS011;59154;51.970;5.650;2023-03-04T20:20:03;10.0;;;3.9;;
70942;SDS011;59154;51.970;5.650;2023-03-04T20:25:02;7.2;;;2.8;;
70942;SDS011;59154;51.970;5.650;2023-03-04T20:30:03;8.0;;;2.8;;
70942;SDS011;59154;51.970;5.650;2023-03-04T20:35:02;6.2;;;2.9;;
70942;SDS011;59154;51.970;5.650;2023-03-04T20:40:04;6.9;;;2.4;;
70942;SDS011;59154;51.970;5.650;2023-03-04T20:45:03;7.1;;;2.6;;
70942;SDS011;59154;51.970;5.650;2023-03-04T20:50:02;7.3;;;2.1;;
70942;SDS011;59154;51.970;5.650;2023-03-04T20:55:02;4.8;;;2.4;;
70942;SDS011;59154;51.970;5.650;2023-03-04T21:00:03;6.1;;;2.4;;
70942;SDS011;59154;51.970;5.650;2023-03-04T21:05:02;8.3;;;2.3;;
70942;SDS011;59154;51.970;5.650;2023-03-04T21:10:03;5.2;;;2.3;;
70942;SDS011;59154;51.970;5.650;2023-03-04T21:15:02;5.2;;;2.0;;
70942;SDS011;59154;51.970;5.650;2023-03-04T21:20:04;5.7;;;2.7;;
70942;SDS011;59154;51.970;5.650;2023-03-04T21:25:03;7.2;;;2.1;;
70942;SDS011;59154;51.970;5.650;2023-03-04T21:30:03;6.1;;;2.7;;
70942;SDS011;59154;51.970;5.650;2023-03-04T21:35:02;10.5;;;2.7;;
70942;SDS011;59154;51.970;5.650;2023-03-04T21:40:03;5.5;;;2.4;;
70942;SDS011;59154;51.970;5.650;2023-03-04T21:45:02;5.4;;;2.1;;
70942;SDS011;59154;51.970;5.650;2023-03-04T21:50:02;14.5;;;3.1;;
70942;SDS011;59154;51.970;5.650;2023-03-04T21:55:03;9.6;;;2.6;;
70942;SDS011;59154;51.970;5.650;2023-03-04T22:00:03;5.3;;;2.6;;
70942;SDS011;59154;51.970;5.650;2023-03-04T22:05:02;5.4;;;2.5;;
70942;SDS011;59154;51.970;5.650;2023-03-04T22:10:03;7.2;;;2.3;;
70942;SDS011;59154;51.970;5.650;2023-03-04T22:15:02;7.4;;;3.2;;
70942;SDS011;59154;51.970;5.650;2023-03-04T22:20:03;7.1;;;3.4;;
70942;SDS011;59154;51.970;5.650;2023-03-04T22:25:02;8.4;;;3.4;;
70942;SDS011;59154;51.970;5.650;2023-03-04T22:30:02;8.5;;;3.4;;
70942;SDS011;59154;51.970;5.650;2023-03-04T22:35:02;7.1;;;2.5;;
70942;SDS011;59154;51.970;5.650;2023-03-04T22:40:03;4.9;;;2.1;;
70942;SDS011;59154;51.970;5.650;2023-03-04T22:45:02;5.2;;;2.7;;
70942;SDS011;59154;51.970;5.650;2023-03-04T22:50:03;6.2;;;2.4;;
70942;SDS011;59154;51.970;5.650;2023-03-04T22:55:03;8.2;;;2.7;;
70942;SDS011;59154;51.970;5.650;2023-03-04T23:00:04;11.1;;;3.6;;
70942;SDS011;59154;51.970;5.650;2023-03-04T23:05:02;6.8;;;2.6;;
70942;SDS011;59154;51.970;5.650;2023-03-04T23:10:03;5.2;;;2.7;;
70942;SDS011;59154;51.970;5.650;2023-03-04T23:15:03;5.7;;;2.8;;
70942;SDS011;59154;51.970;5.650;2023-03-04T23:20:03;9.1;;;2.8;;
70942;SDS011;59154;51.970;5.650;2023-03-04T23:25:02;4.8;;;2.3;;
70942;SDS011;59154;51.970;5.650;2023-03-04T23:30:03;5.0;;;2.8;;
70942;SDS011;59154;51.970;5.650;2023-03-04T23:35:02;13.7;;;4.1;;
70942;SDS011;59154;51.970;5.650;2023-03-04T23:40:03;7.1;;;2.4;;
70942;SDS011;59154;51.970;5.650;2023-03-04T23:45:02;10.5;;;2.9;;
70942;SDS011;59154;51.970;5.650;2023-03-04T23:50:03;5.8;;;2.4;;
70942;SDS011;59154;51.970;5.650;2023-03-04T23:55:02;7.6;;;2.7;;
